sensor_id;sensor_type;location;lat;lon;timestamp;P1;durP1;ratioP1;P2;durP2;ratioP2
24145;SDS011;12308;50.948;4.706;2022-12-16T00:01:37;123.70;;;58.55;;
24145;SDS011;12308;50.948;4.706;2022-12-16T00:04:03;125.18;;;58.08;;
24145;SDS011;12308;50.948;4.706;2022-12-16T00:06:30;122.15;;;58.63;;
24145;SDS011;12308;50.948;4.706;2022-12-16T00:08:57;121.82;;;59.58;;
24145;SDS011;12308;50.948;4.706;2022-12-16T00:11:24;123.80;;;58.92;;
24145;SDS011;12308;50.948;4.706;2022-12-16T00:13:49;121.60;;;58.08;;
24145;SDS011;12308;50.948;4.706;2022-12-16T00:16:15;128.27;;;59.90;;
24145;SDS011;12308;50.948;4.706;2022-12-16T00:18:43;129.32;;;60.85;;
24145;SDS011;12308;50.948;4.706;2022-12-16T00:21:09;119.22;;;59.58;;
24145;SDS011;12308;50.948;4.706;2022-12-16T00:23:35;125.47;;;60.08;;
24145;SDS011;12308;50.948;4.706;2022-12-16T00:26:03;114.50;;;58.88;;
24145;SDS011;12308;50.948;4.706;2022-12-16T00:28:29;120.35;;;57.58;;
24145;SDS011;12308;50.948;4.706;2022-12-16T00:30:55;118.28;;;58.90;;
24145;SDS011;12308;50.948;4.706;2022-12-16T00:33:22;124.85;;;61.95;;
24145;SDS011;12308;50.948;4.706;2022-12-16T00:35:49;122.65;;;59.35;;
24145;SDS011;12308;50.948;4.706;2022-12-16T00:38:15;125.05;;;61.70;;
24145;SDS011;12308;50.948;4.706;2022-12-16T00:40:41;124.22;;;61.22;;
24145;SDS011;12308;50.948;4.706;2022-12-16T00:43:07;129.02;;;61.42;;
24145;SDS011;12308;50.948;4.706;2022-12-16T00:45:34;125.57;;;61.78;;
24145;SDS011;12308;50.948;4.706;2022-12-16T00:47:59;128.20;;;61.47;;
24145;SDS011;12308;50.948;4.706;2022-12-16T00:50:25;121.20;;;60.58;;
24145;SDS011;12308;50.948;4.706;2022-12-16T00:52:51;130.07;;;62.47;;
24145;SDS011;12308;50.948;4.706;2022-12-16T00:55:17;127.65;;;62.85;;
24145;SDS011;12308;50.948;4.706;2022-12-16T00:57:44;121.65;;;60.58;;
24145;SDS011;12308;50.948;4.706;2022-12-16T01:00:10;119.38;;;58.70;;
24145;SDS011;12308;50.948;4.706;2022-12-16T01:02:38;129.80;;;60.67;;
24145;SDS011;12308;50.948;4.706;2022-12-16T01:05:05;117.25;;;60.72;;
24145;SDS011;12308;50.948;4.706;2022-12-16T01:07:31;127.60;;;60.33;;
24145;SDS011;12308;50.948;4.706;2022-12-16T01:09:57;124.60;;;60.83;;
24145;SDS011;12308;50.948;4.706;2022-12-16T01:12:23;123.90;;;60.63;;
24145;SDS011;12308;50.948;4.706;2022-12-16T01:14:48;118.15;;;59.67;;
24145;SDS011;12308;50.948;4.706;2022-12-16T01:17:14;121.47;;;58.72;;
24145;SDS011;12308;50.948;4.706;2022-12-16T01:19:40;120.28;;;60.00;;
24145;SDS011;12308;50.948;4.706;2022-12-16T01:22:05;125.32;;;60.95;;
24145;SDS011;12308;50.948;4.706;2022-12-16T01:24:31;125.80;;;61.22;;
24145;SDS011;12308;50.948;4.706;2022-12-16T01:26:57;118.43;;;58.58;;
24145;SDS011;12308;50.948;4.706;2022-12-16T01:29:22;123.60;;;60.92;;
24145;SDS011;12308;50.948;4.706;2022-12-16T01:31:48;124.13;;;61.08;;
24145;SDS011;12308;50.948;4.706;2022-12-16T01:34:14;126.97;;;63.40;;
24145;SDS011;12308;50.948;4.706;2022-12-16T01:36:41;123.03;;;62.17;;
24145;SDS011;12308;50.948;4.706;2022-12-16T01:39:08;119.88;;;59.17;;
24145;SDS011;12308;50.948;4.706;2022-12-16T01:41:35;117.63;;;60.17;;
24145;SDS011;12308;50.948;4.706;2022-12-16T01:44:14;113.65;;;57.42;;
24145;SDS011;12308;50.948;4.706;2022-12-16T01:46:42;117.55;;;58.30;;
24145;SDS011;12308;50.948;4.706;2022-12-16T01:49:20;116.10;;;57.80;;
24145;SDS011;12308;50.948;4.706;2022-12-16T01:51:51;120.00;;;59.10;;
24145;SDS011;12308;50.948;4.706;2022-12-16T01:54:21;123.78;;;58.20;;
24145;SDS011;12308;50.948;4.706;2022-12-16T01:56:55;114.78;;;58.40;;
24145;SDS011;12308;50.948;4.706;2022-12-16T01:59:24;118.40;;;60.05;;
24145;SDS011;12308;50.948;4.706;2022-12-16T02:01:53;115.30;;;55.80;;
24145;SDS011;12308;50.948;4.706;2022-12-16T02:04:19;119.60;;;58.05;;
24145;SDS011;12308;50.948;4.706;2022-12-16T02:06:45;114.47;;;57.70;;
24145;SDS011;12308;50.948;4.706;2022-12-16T02:09:11;118.55;;;58.38;;
24145;SDS011;12308;50.948;4.706;2022-12-16T02:15:07;115.10;;;56.47;;
24145;SDS011;12308;50.948;4.706;2022-12-16T02:23:38;119.50;;;58.30;;
24145;SDS011;12308;50.948;4.706;2022-12-16T02:26:32;117.22;;;57.65;;
24145;SDS011;12308;50.948;4.706;2022-12-16T02:32:04;115.07;;;56.72;;
24145;SDS011;12308;50.948;4.706;2022-12-16T02:37:44;118.43;;;58.90;;
24145;SDS011;12308;50.948;4.706;2022-12-16T02:40:26;116.18;;;58.45;;
24145;SDS011;12308;50.948;4.706;2022-12-16T02:43:02;120.25;;;61.65;;
24145;SDS011;12308;50.948;4.706;2022-12-16T02:45:33;118.63;;;58.63;;
24145;SDS011;12308;50.948;4.706;2022-12-16T02:47:59;118.97;;;58.42;;
24145;SDS011;12308;50.948;4.706;2022-12-16T02:50:47;117.07;;;61.05;;
24145;SDS011;12308;50.948;4.706;2022-12-16T02:53:13;112.97;;;57.80;;
24145;SDS011;12308;50.948;4.706;2022-12-16T03:03:39;115.30;;;58.70;;
24145;SDS011;12308;50.948;4.706;2022-12-16T03:06:09;116.32;;;59.40;;
24145;SDS011;12308;50.948;4.706;2022-12-16T03:08:39;113.63;;;57.83;;
24145;SDS011;12308;50.948;4.706;2022-12-16T03:11:08;112.57;;;58.70;;
24145;SDS011;12308;50.948;4.706;2022-12-16T03:13:38;114.82;;;58.33;;
24145;SDS011;12308;50.948;4.706;2022-12-16T03:16:09;116.15;;;58.50;;
24145;SDS011;12308;50.948;4.706;2022-12-16T03:18:39;120.18;;;59.25;;
24145;SDS011;12308;50.948;4.706;2022-12-16T03:21:08;106.00;;;55.30;;
24145;SDS011;12308;50.948;4.706;2022-12-16T03:23:45;125.15;;;61.10;;
24145;SDS011;12308;50.948;4.706;2022-12-16T03:26:20;119.82;;;58.72;;
24145;SDS011;12308;50.948;4.706;2022-12-16T03:32:07;123.25;;;58.42;;
24145;SDS011;12308;50.948;4.706;2022-12-16T03:37:07;122.93;;;60.63;;
24145;SDS011;12308;50.948;4.706;2022-12-16T03:39:38;124.80;;;62.30;;
24145;SDS011;12308;50.948;4.706;2022-12-16T03:42:07;121.13;;;60.50;;
24145;SDS011;12308;50.948;4.706;2022-12-16T03:44:34;117.57;;;58.20;;
24145;SDS011;12308;50.948;4.706;2022-12-16T03:47:00;112.75;;;59.17;;
24145;SDS011;12308;50.948;4.706;2022-12-16T03:49:26;126.43;;;59.72;;
24145;SDS011;12308;50.948;4.706;2022-12-16T03:51:52;117.38;;;59.72;;
24145;SDS011;12308;50.948;4.706;2022-12-16T03:54:19;127.85;;;59.95;;
24145;SDS011;12308;50.948;4.706;2022-12-16T03:56:45;109.95;;;57.30;;
24145;SDS011;12308;50.948;4.706;2022-12-16T03:59:11;122.22;;;61.25;;
24145;SDS011;12308;50.948;4.706;2022-12-16T04:01:38;113.05;;;58.85;;
24145;SDS011;12308;50.948;4.706;2022-12-16T04:04:04;123.82;;;59.75;;
24145;SDS011;12308;50.948;4.706;2022-12-16T04:06:30;117.97;;;59.40;;
24145;SDS011;12308;50.948;4.706;2022-12-16T04:08:55;112.97;;;56.00;;
24145;SDS011;12308;50.948;4.706;2022-12-16T04:11:21;115.72;;;55.60;;
24145;SDS011;12308;50.948;4.706;2022-12-16T04:14:06;113.95;;;55.58;;
24145;SDS011;12308;50.948;4.706;2022-12-16T04:16:51;111.85;;;54.65;;
24145;SDS011;12308;50.948;4.706;2022-12-16T04:19:36;120.43;;;57.00;;
24145;SDS011;12308;50.948;4.706;2022-12-16T04:22:31;114.50;;;56.58;;
24145;SDS011;12308;50.948;4.706;2022-12-16T04:25:30;123.78;;;58.28;;
24145;SDS011;12308;50.948;4.706;2022-12-16T04:27:58;117.97;;;58.58;;
24145;SDS011;12308;50.948;4.706;2022-12-16T04:30:24;130.70;;;59.50;;
24145;SDS011;12308;50.948;4.706;2022-12-16T04:32:58;128.85;;;62.80;;
24145;SDS011;12308;50.948;4.706;2022-12-16T04:35:46;137.85;;;61.75;;
24145;SDS011;12308;50.948;4.706;2022-12-16T04:38:31;143.57;;;65.03;;
24145;SDS011;12308;50.948;4.706;2022-12-16T04:41:15;146.85;;;63.35;;
24145;SDS011;12308;50.948;4.706;2022-12-16T04:43:59;152.73;;;66.38;;
24145;SDS011;12308;50.948;4.706;2022-12-16T04:46:43;154.70;;;67.38;;
24145;SDS011;12308;50.948;4.706;2022-12-16T04:49:27;171.27;;;70.97;;
24145;SDS011;12308;50.948;4.706;2022-12-16T04:52:12;156.98;;;70.13;;
24145;SDS011;12308;50.948;4.706;2022-12-16T04:54:57;162.90;;;70.78;;
24145;SDS011;12308;50.948;4.706;2022-12-16T04:57:43;155.43;;;68.32;;
24145;SDS011;12308;50.948;4.706;2022-12-16T05:00:31;162.75;;;68.93;;
24145;SDS011;12308;50.948;4.706;2022-12-16T05:03:15;168.23;;;70.45;;
24145;SDS011;12308;50.948;4.706;2022-12-16T05:05:59;160.18;;;70.32;;
24145;SDS011;12308;50.948;4.706;2022-12-16T05:08:43;152.48;;;68.32;;
24145;SDS011;12308;50.948;4.706;2022-12-16T05:11:27;166.25;;;71.32;;
24145;SDS011;12308;50.948;4.706;2022-12-16T05:14:11;158.23;;;69.72;;
24145;SDS011;12308;50.948;4.706;2022-12-16T05:16:55;171.48;;;70.90;;
24145;SDS011;12308;50.948;4.706;2022-12-16T05:19:40;173.93;;;71.85;;
24145;SDS011;12308;50.948;4.706;2022-12-16T05:22:24;177.18;;;72.18;;
24145;SDS011;12308;50.948;4.706;2022-12-16T05:25:08;199.15;;;77.10;;
24145;SDS011;12308;50.948;4.706;2022-12-16T05:27:52;213.18;;;79.00;;
24145;SDS011;12308;50.948;4.706;2022-12-16T05:30:37;217.88;;;79.28;;
24145;SDS011;12308;50.948;4.706;2022-12-16T05:33:22;213.43;;;76.70;;
24145;SDS011;12308;50.948;4.706;2022-12-16T05:36:06;224.48;;;75.60;;
24145;SDS011;12308;50.948;4.706;2022-12-16T05:38:51;217.52;;;74.25;;
24145;SDS011;12308;50.948;4.706;2022-12-16T05:41:35;221.10;;;75.63;;
24145;SDS011;12308;50.948;4.706;2022-12-16T05:44:20;218.98;;;72.55;;
24145;SDS011;12308;50.948;4.706;2022-12-16T05:47:04;216.35;;;70.72;;
24145;SDS011;12308;50.948;4.706;2022-12-16T05:49:49;214.82;;;70.22;;
24145;SDS011;12308;50.948;4.706;2022-12-16T05:52:34;231.65;;;73.55;;
24145;SDS011;12308;50.948;4.706;2022-12-16T05:55:18;221.23;;;71.15;;
24145;SDS011;12308;50.948;4.706;2022-12-16T05:58:02;206.98;;;67.90;;
24145;SDS011;12308;50.948;4.706;2022-12-16T06:00:46;207.52;;;67.88;;
24145;SDS011;12308;50.948;4.706;2022-12-16T06:03:30;181.73;;;59.65;;
24145;SDS011;12308;50.948;4.706;2022-12-16T06:06:15;202.57;;;66.88;;
24145;SDS011;12308;50.948;4.706;2022-12-16T06:08:59;203.68;;;67.10;;
24145;SDS011;12308;50.948;4.706;2022-12-16T06:11:44;203.40;;;70.90;;
24145;SDS011;12308;50.948;4.706;2022-12-16T06:14:28;195.52;;;66.53;;
24145;SDS011;12308;50.948;4.706;2022-12-16T06:17:12;203.23;;;66.65;;
24145;SDS011;12308;50.948;4.706;2022-12-16T06:19:56;199.27;;;67.60;;
24145;SDS011;12308;50.948;4.706;2022-12-16T06:22:40;198.45;;;65.28;;
24145;SDS011;12308;50.948;4.706;2022-12-16T06:25:25;205.68;;;68.07;;
24145;SDS011;12308;50.948;4.706;2022-12-16T06:28:10;188.82;;;66.50;;
24145;SDS011;12308;50.948;4.706;2022-12-16T06:30:54;195.77;;;65.72;;
24145;SDS011;12308;50.948;4.706;2022-12-16T06:33:38;200.98;;;69.78;;
24145;SDS011;12308;50.948;4.706;2022-12-16T06:36:22;203.85;;;67.63;;
24145;SDS011;12308;50.948;4.706;2022-12-16T06:39:06;196.68;;;67.32;;
24145;SDS011;12308;50.948;4.706;2022-12-16T06:41:51;203.90;;;65.40;;
24145;SDS011;12308;50.948;4.706;2022-12-16T06:44:35;196.15;;;66.88;;
24145;SDS011;12308;50.948;4.706;2022-12-16T06:47:19;186.90;;;65.72;;
24145;SDS011;12308;50.948;4.706;2022-12-16T06:50:03;188.30;;;65.80;;
24145;SDS011;12308;50.948;4.706;2022-12-16T06:52:48;198.05;;;67.18;;
24145;SDS011;12308;50.948;4.706;2022-12-16T06:55:32;189.43;;;62.53;;
24145;SDS011;12308;50.948;4.706;2022-12-16T06:58:16;175.20;;;62.05;;
24145;SDS011;12308;50.948;4.706;2022-12-16T07:01:00;175.52;;;61.40;;
24145;SDS011;12308;50.948;4.706;2022-12-16T07:03:45;174.05;;;63.13;;
24145;SDS011;12308;50.948;4.706;2022-12-16T07:06:28;163.52;;;57.17;;
24145;SDS011;12308;50.948;4.706;2022-12-16T07:09:12;168.40;;;60.05;;
24145;SDS011;12308;50.948;4.706;2022-12-16T07:11:57;172.68;;;63.10;;
24145;SDS011;12308;50.948;4.706;2022-12-16T07:14:41;180.07;;;60.15;;
24145;SDS011;12308;50.948;4.706;2022-12-16T07:17:25;177.75;;;58.72;;
24145;SDS011;12308;50.948;4.706;2022-12-16T07:20:09;162.40;;;56.30;;
24145;SDS011;12308;50.948;4.706;2022-12-16T07:22:53;165.65;;;54.33;;
24145;SDS011;12308;50.948;4.706;2022-12-16T07:25:37;190.82;;;62.80;;
24145;SDS011;12308;50.948;4.706;2022-12-16T07:28:21;181.77;;;60.75;;
24145;SDS011;12308;50.948;4.706;2022-12-16T07:31:06;177.25;;;61.92;;
24145;SDS011;12308;50.948;4.706;2022-12-16T07:33:50;183.02;;;61.38;;
24145;SDS011;12308;50.948;4.706;2022-12-16T07:36:34;196.90;;;63.65;;
24145;SDS011;12308;50.948;4.706;2022-12-16T07:39:18;183.20;;;64.05;;
24145;SDS011;12308;50.948;4.706;2022-12-16T07:42:02;187.43;;;60.00;;
24145;SDS011;12308;50.948;4.706;2022-12-16T07:44:46;183.45;;;60.05;;
24145;SDS011;12308;50.948;4.706;2022-12-16T07:47:30;163.05;;;54.38;;
24145;SDS011;12308;50.948;4.706;2022-12-16T07:50:15;176.70;;;59.22;;
24145;SDS011;12308;50.948;4.706;2022-12-16T07:52:59;183.35;;;61.92;;
24145;SDS011;12308;50.948;4.706;2022-12-16T07:55:44;191.38;;;63.20;;
24145;SDS011;12308;50.948;4.706;2022-12-16T07:58:28;185.40;;;58.97;;
24145;SDS011;12308;50.948;4.706;2022-12-16T08:01:14;178.85;;;57.97;;
24145;SDS011;12308;50.948;4.706;2022-12-16T08:03:58;170.85;;;59.00;;
24145;SDS011;12308;50.948;4.706;2022-12-16T08:06:42;180.50;;;56.13;;
24145;SDS011;12308;50.948;4.706;2022-12-16T08:09:27;176.77;;;59.47;;
24145;SDS011;12308;50.948;4.706;2022-12-16T08:12:11;169.80;;;58.90;;
24145;SDS011;12308;50.948;4.706;2022-12-16T08:14:55;169.20;;;55.88;;
24145;SDS011;12308;50.948;4.706;2022-12-16T08:17:49;177.40;;;56.20;;
24145;SDS011;12308;50.948;4.706;2022-12-16T08:20:34;171.10;;;56.78;;
24145;SDS011;12308;50.948;4.706;2022-12-16T08:23:19;162.48;;;56.10;;
24145;SDS011;12308;50.948;4.706;2022-12-16T08:26:03;161.25;;;54.55;;
24145;SDS011;12308;50.948;4.706;2022-12-16T08:28:48;166.80;;;56.50;;
24145;SDS011;12308;50.948;4.706;2022-12-16T08:31:32;177.27;;;59.20;;
24145;SDS011;12308;50.948;4.706;2022-12-16T08:34:17;158.57;;;53.20;;
24145;SDS011;12308;50.948;4.706;2022-12-16T08:37:01;153.82;;;50.13;;
24145;SDS011;12308;50.948;4.706;2022-12-16T08:39:45;153.82;;;50.65;;
24145;SDS011;12308;50.948;4.706;2022-12-16T08:42:36;160.63;;;54.63;;
24145;SDS011;12308;50.948;4.706;2022-12-16T08:45:21;162.23;;;54.50;;
24145;SDS011;12308;50.948;4.706;2022-12-16T08:48:05;161.60;;;51.88;;
24145;SDS011;12308;50.948;4.706;2022-12-16T08:50:49;157.05;;;56.78;;
24145;SDS011;12308;50.948;4.706;2022-12-16T08:53:34;154.25;;;53.53;;
24145;SDS011;12308;50.948;4.706;2022-12-16T08:56:18;152.23;;;53.40;;
24145;SDS011;12308;50.948;4.706;2022-12-16T08:59:02;148.88;;;51.20;;
24145;SDS011;12308;50.948;4.706;2022-12-16T09:01:46;163.75;;;55.60;;
24145;SDS011;12308;50.948;4.706;2022-12-16T09:04:30;169.88;;;56.22;;
24145;SDS011;12308;50.948;4.706;2022-12-16T09:07:15;153.02;;;53.50;;
24145;SDS011;12308;50.948;4.706;2022-12-16T09:09:59;153.85;;;51.72;;
24145;SDS011;12308;50.948;4.706;2022-12-16T09:12:43;161.52;;;52.92;;
24145;SDS011;12308;50.948;4.706;2022-12-16T09:15:27;166.02;;;56.25;;
24145;SDS011;12308;50.948;4.706;2022-12-16T09:18:11;166.70;;;55.50;;
24145;SDS011;12308;50.948;4.706;2022-12-16T09:20:55;173.27;;;56.90;;
24145;SDS011;12308;50.948;4.706;2022-12-16T09:23:41;169.70;;;57.67;;
24145;SDS011;12308;50.948;4.706;2022-12-16T09:26:25;164.68;;;57.00;;
24145;SDS011;12308;50.948;4.706;2022-12-16T09:29:09;153.65;;;54.75;;
24145;SDS011;12308;50.948;4.706;2022-12-16T09:31:53;154.57;;;52.88;;
24145;SDS011;12308;50.948;4.706;2022-12-16T09:34:37;143.25;;;50.17;;
24145;SDS011;12308;50.948;4.706;2022-12-16T09:37:29;141.40;;;48.03;;
24145;SDS011;12308;50.948;4.706;2022-12-16T09:40:14;143.80;;;50.75;;
24145;SDS011;12308;50.948;4.706;2022-12-16T09:43:03;138.27;;;49.53;;
24145;SDS011;12308;50.948;4.706;2022-12-16T09:46:44;140.75;;;46.38;;
24145;SDS011;12308;50.948;4.706;2022-12-16T09:52:01;134.00;;;44.78;;
24145;SDS011;12308;50.948;4.706;2022-12-16T09:54:48;143.63;;;50.30;;
24145;SDS011;12308;50.948;4.706;2022-12-16T09:57:33;133.40;;;49.03;;
24145;SDS011;12308;50.948;4.706;2022-12-16T10:00:20;139.15;;;48.28;;
24145;SDS011;12308;50.948;4.706;2022-12-16T10:03:11;132.43;;;49.08;;
24145;SDS011;12308;50.948;4.706;2022-12-16T10:06:51;123.63;;;45.67;;
24145;SDS011;12308;50.948;4.706;2022-12-16T10:12:25;127.55;;;45.75;;
24145;SDS011;12308;50.948;4.706;2022-12-16T10:21:44;111.97;;;42.95;;
24145;SDS011;12308;50.948;4.706;2022-12-16T10:27:21;115.47;;;42.20;;
24145;SDS011;12308;50.948;4.706;2022-12-16T10:30:22;112.82;;;42.17;;
24145;SDS011;12308;50.948;4.706;2022-12-16T10:33:08;115.90;;;43.72;;
24145;SDS011;12308;50.948;4.706;2022-12-16T10:35:56;116.22;;;43.47;;
24145;SDS011;12308;50.948;4.706;2022-12-16T10:38:42;114.95;;;43.58;;
24145;SDS011;12308;50.948;4.706;2022-12-16T10:41:33;110.53;;;42.50;;
24145;SDS011;12308;50.948;4.706;2022-12-16T10:47:09;107.28;;;44.35;;
24145;SDS011;12308;50.948;4.706;2022-12-16T10:49:53;104.65;;;41.65;;
24145;SDS011;12308;50.948;4.706;2022-12-16T10:52:42;103.80;;;44.08;;
24145;SDS011;12308;50.948;4.706;2022-12-16T10:55:54;96.88;;;41.90;;
24145;SDS011;12308;50.948;4.706;2022-12-16T10:58:59;99.53;;;41.92;;
24145;SDS011;12308;50.948;4.706;2022-12-16T11:01:57;103.53;;;41.17;;
24145;SDS011;12308;50.948;4.706;2022-12-16T11:04:46;97.90;;;41.45;;
24145;SDS011;12308;50.948;4.706;2022-12-16T11:07:39;109.40;;;43.20;;
24145;SDS011;12308;50.948;4.706;2022-12-16T11:10:36;99.88;;;42.33;;
24145;SDS011;12308;50.948;4.706;2022-12-16T11:13:24;105.95;;;42.97;;
24145;SDS011;12308;50.948;4.706;2022-12-16T11:19:00;105.00;;;42.65;;
24145;SDS011;12308;50.948;4.706;2022-12-16T11:21:45;106.28;;;42.88;;
24145;SDS011;12308;50.948;4.706;2022-12-16T11:24:30;105.68;;;42.10;;
24145;SDS011;12308;50.948;4.706;2022-12-16T11:36:03;110.28;;;45.78;;
24145;SDS011;12308;50.948;4.706;2022-12-16T11:38:52;109.88;;;45.22;;
24145;SDS011;12308;50.948;4.706;2022-12-16T11:41:43;108.18;;;44.42;;
24145;SDS011;12308;50.948;4.706;2022-12-16T11:47:32;108.13;;;42.85;;
24145;SDS011;12308;50.948;4.706;2022-12-16T11:50:21;124.85;;;49.15;;
24145;SDS011;12308;50.948;4.706;2022-12-16T11:53:16;115.68;;;49.45;;
24145;SDS011;12308;50.948;4.706;2022-12-16T11:56:28;120.88;;;48.90;;
24145;SDS011;12308;50.948;4.706;2022-12-16T11:59:19;121.47;;;47.13;;
24145;SDS011;12308;50.948;4.706;2022-12-16T12:03:18;132.32;;;50.03;;
24145;SDS011;12308;50.948;4.706;2022-12-16T12:14:52;131.98;;;52.05;;
24145;SDS011;12308;50.948;4.706;2022-12-16T12:27:01;116.65;;;45.83;;
24145;SDS011;12308;50.948;4.706;2022-12-16T12:30:09;115.85;;;46.75;;
24145;SDS011;12308;50.948;4.706;2022-12-16T12:47:23;109.25;;;42.60;;
24145;SDS011;12308;50.948;4.706;2022-12-16T12:50:13;105.40;;;41.85;;
24145;SDS011;12308;50.948;4.706;2022-12-16T12:59:23;98.28;;;40.33;;
24145;SDS011;12308;50.948;4.706;2022-12-16T13:02:13;102.75;;;40.33;;
24145;SDS011;12308;50.948;4.706;2022-12-16T13:05:02;88.70;;;39.05;;
24145;SDS011;12308;50.948;4.706;2022-12-16T13:07:48;89.00;;;38.50;;
24145;SDS011;12308;50.948;4.706;2022-12-16T13:10:33;93.18;;;37.80;;
24145;SDS011;12308;50.948;4.706;2022-12-16T13:13:25;94.97;;;38.50;;
24145;SDS011;12308;50.948;4.706;2022-12-16T13:22:26;89.55;;;34.90;;
24145;SDS011;12308;50.948;4.706;2022-12-16T13:28:24;83.45;;;33.53;;
24145;SDS011;12308;50.948;4.706;2022-12-16T13:31:12;84.38;;;32.55;;
24145;SDS011;12308;50.948;4.706;2022-12-16T13:34:00;84.75;;;32.55;;
24145;SDS011;12308;50.948;4.706;2022-12-16T13:36:52;80.18;;;30.65;;
24145;SDS011;12308;50.948;4.706;2022-12-16T13:39:37;73.43;;;30.00;;
24145;SDS011;12308;50.948;4.706;2022-12-16T13:45:32;72.32;;;28.55;;
24145;SDS011;12308;50.948;4.706;2022-12-16T13:48:39;64.57;;;26.63;;
24145;SDS011;12308;50.948;4.706;2022-12-16T13:51:54;60.28;;;25.23;;
24145;SDS011;12308;50.948;4.706;2022-12-16T13:54:48;61.22;;;25.02;;
24145;SDS011;12308;50.948;4.706;2022-12-16T13:57:41;59.65;;;25.25;;
24145;SDS011;12308;50.948;4.706;2022-12-16T14:00:27;54.95;;;22.85;;
24145;SDS011;12308;50.948;4.706;2022-12-16T14:06:30;56.10;;;23.55;;
24145;SDS011;12308;50.948;4.706;2022-12-16T14:09:50;60.67;;;24.60;;
24145;SDS011;12308;50.948;4.706;2022-12-16T14:16:00;53.67;;;22.38;;
24145;SDS011;12308;50.948;4.706;2022-12-16T14:19:17;67.97;;;27.00;;
24145;SDS011;12308;50.948;4.706;2022-12-16T14:25:21;65.25;;;26.42;;
24145;SDS011;12308;50.948;4.706;2022-12-16T14:31:16;63.95;;;24.83;;
24145;SDS011;12308;50.948;4.706;2022-12-16T14:34:02;64.15;;;25.98;;
24145;SDS011;12308;50.948;4.706;2022-12-16T14:36:46;56.20;;;24.80;;
24145;SDS011;12308;50.948;4.706;2022-12-16T14:39:35;60.33;;;23.90;;
24145;SDS011;12308;50.948;4.706;2022-12-16T14:57:29;53.50;;;24.42;;
24145;SDS011;12308;50.948;4.706;2022-12-16T15:00:18;65.22;;;28.38;;
24145;SDS011;12308;50.948;4.706;2022-12-16T15:03:29;137.35;;;58.00;;
24145;SDS011;12308;50.948;4.706;2022-12-16T15:06:28;212.27;;;77.60;;
24145;SDS011;12308;50.948;4.706;2022-12-16T15:09:26;178.52;;;69.72;;
24145;SDS011;12308;50.948;4.706;2022-12-16T15:12:13;109.28;;;45.05;;
24145;SDS011;12308;50.948;4.706;2022-12-16T15:15:02;82.13;;;32.33;;
24145;SDS011;12308;50.948;4.706;2022-12-16T15:17:50;65.95;;;27.80;;
24145;SDS011;12308;50.948;4.706;2022-12-16T15:20:39;64.15;;;27.02;;
24145;SDS011;12308;50.948;4.706;2022-12-16T15:23:31;61.22;;;27.13;;
24145;SDS011;12308;50.948;4.706;2022-12-16T15:26:21;59.40;;;26.77;;
24145;SDS011;12308;50.948;4.706;2022-12-16T15:32:31;60.08;;;26.80;;
24145;SDS011;12308;50.948;4.706;2022-12-16T15:40:59;55.30;;;24.15;;
24145;SDS011;12308;50.948;4.706;2022-12-16T15:43:45;49.60;;;23.33;;
24145;SDS011;12308;50.948;4.706;2022-12-16T15:46:31;62.70;;;23.85;;
24145;SDS011;12308;50.948;4.706;2022-12-16T15:49:28;56.97;;;23.95;;
24145;SDS011;12308;50.948;4.706;2022-12-16T15:55:26;55.22;;;24.50;;
24145;SDS011;12308;50.948;4.706;2022-12-16T15:58:20;70.68;;;26.83;;
24145;SDS011;12308;50.948;4.706;2022-12-16T16:01:10;65.95;;;27.88;;
24145;SDS011;12308;50.948;4.706;2022-12-16T16:03:58;63.47;;;28.10;;
24145;SDS011;12308;50.948;4.706;2022-12-16T16:06:50;73.95;;;29.15;;
24145;SDS011;12308;50.948;4.706;2022-12-16T16:09:38;73.80;;;30.52;;
24145;SDS011;12308;50.948;4.706;2022-12-16T16:12:23;70.45;;;30.80;;
24145;SDS011;12308;50.948;4.706;2022-12-16T16:15:09;71.82;;;31.23;;
24145;SDS011;12308;50.948;4.706;2022-12-16T16:17:56;76.50;;;32.35;;
24145;SDS011;12308;50.948;4.706;2022-12-16T16:20:46;73.03;;;31.35;;
24145;SDS011;12308;50.948;4.706;2022-12-16T16:23:30;72.53;;;31.67;;
24145;SDS011;12308;50.948;4.706;2022-12-16T16:26:16;74.07;;;31.75;;
24145;SDS011;12308;50.948;4.706;2022-12-16T16:29:03;78.10;;;33.03;;
24145;SDS011;12308;50.948;4.706;2022-12-16T16:31:47;80.82;;;34.70;;
24145;SDS011;12308;50.948;4.706;2022-12-16T16:34:31;79.45;;;34.55;;
24145;SDS011;12308;50.948;4.706;2022-12-16T16:37:16;75.03;;;30.23;;
24145;SDS011;12308;50.948;4.706;2022-12-16T16:40:21;73.13;;;31.60;;
24145;SDS011;12308;50.948;4.706;2022-12-16T16:43:14;83.10;;;33.95;;
24145;SDS011;12308;50.948;4.706;2022-12-16T16:46:37;80.75;;;33.83;;
24145;SDS011;12308;50.948;4.706;2022-12-16T16:49:24;72.35;;;31.17;;
24145;SDS011;12308;50.948;4.706;2022-12-16T16:52:14;75.30;;;29.92;;
24145;SDS011;12308;50.948;4.706;2022-12-16T16:55:01;74.32;;;31.80;;
24145;SDS011;12308;50.948;4.706;2022-12-16T16:57:47;73.40;;;32.78;;
24145;SDS011;12308;50.948;4.706;2022-12-16T17:00:31;71.25;;;32.53;;
24145;SDS011;12308;50.948;4.706;2022-12-16T17:03:15;90.45;;;36.38;;
24145;SDS011;12308;50.948;4.706;2022-12-16T17:06:00;67.90;;;31.63;;
24145;SDS011;12308;50.948;4.706;2022-12-16T17:08:44;81.13;;;34.45;;
24145;SDS011;12308;50.948;4.706;2022-12-16T17:11:28;85.43;;;33.95;;
24145;SDS011;12308;50.948;4.706;2022-12-16T17:14:18;80.13;;;34.13;;
24145;SDS011;12308;50.948;4.706;2022-12-16T17:17:04;82.18;;;32.92;;
24145;SDS011;12308;50.948;4.706;2022-12-16T17:19:49;77.90;;;33.92;;
24145;SDS011;12308;50.948;4.706;2022-12-16T17:22:34;75.60;;;31.25;;
24145;SDS011;12308;50.948;4.706;2022-12-16T17:25:18;71.03;;;31.58;;
24145;SDS011;12308;50.948;4.706;2022-12-16T17:28:03;83.30;;;34.80;;
24145;SDS011;12308;50.948;4.706;2022-12-16T17:30:48;94.40;;;39.08;;
24145;SDS011;12308;50.948;4.706;2022-12-16T17:33:32;105.13;;;43.03;;
24145;SDS011;12308;50.948;4.706;2022-12-16T17:36:16;79.85;;;31.73;;
24145;SDS011;12308;50.948;4.706;2022-12-16T17:39:01;107.85;;;45.45;;
24145;SDS011;12308;50.948;4.706;2022-12-16T17:41:47;88.25;;;36.80;;
24145;SDS011;12308;50.948;4.706;2022-12-16T17:44:32;82.78;;;34.28;;
24145;SDS011;12308;50.948;4.706;2022-12-16T17:47:16;71.90;;;32.03;;
24145;SDS011;12308;50.948;4.706;2022-12-16T17:50:01;84.43;;;36.47;;
24145;SDS011;12308;50.948;4.706;2022-12-16T17:52:46;102.05;;;40.67;;
24145;SDS011;12308;50.948;4.706;2022-12-16T17:55:30;120.78;;;45.83;;
24145;SDS011;12308;50.948;4.706;2022-12-16T17:58:16;101.15;;;41.25;;
24145;SDS011;12308;50.948;4.706;2022-12-16T18:01:00;99.72;;;39.95;;
24145;SDS011;12308;50.948;4.706;2022-12-16T18:03:46;90.05;;;37.88;;
24145;SDS011;12308;50.948;4.706;2022-12-16T18:06:30;86.95;;;36.35;;
24145;SDS011;12308;50.948;4.706;2022-12-16T18:09:14;87.65;;;35.50;;
24145;SDS011;12308;50.948;4.706;2022-12-16T18:11:58;83.50;;;37.17;;
24145;SDS011;12308;50.948;4.706;2022-12-16T18:14:42;85.28;;;35.10;;